Terminal Aerodrome Forecast
Issued by NWS

Home | Current Version | Previous Version | Text Only | Print | Product List | Glossary On
Versions: 1 2 3 4 5 6 7 8 9 10 11 12 13 14 15 16 17 18 19 20 21 22 23 24 25 26
000
FTUS41 KOKX 302000 AAA
TAFTEB
TAF AMD
KTEB 302043Z 3021/3118 17007KT P6SM SCT025 BKN040
     FM310100 19005KT P6SM SCT015 BKN035
     FM311000 20006KT P6SM BKN015
     FM311500 21009KT 6SM HZ SCT020 BKN040=

USA.gov is the U.S. government's official web portal to all federal, state and local government web resources and services.